sensor_id;sensor_type;location;lat;lon;timestamp;temperature;humidity
36416;DHT22;22447;44.530;18.620;2023-03-02T00:01:53;2.90;99.90
36416;DHT22;22447;44.530;18.620;2023-03-02T00:04:40;2.90;99.90
36416;DHT22;22447;44.530;18.620;2023-03-02T00:07:13;2.90;99.90
36416;DHT22;22447;44.530;18.620;2023-03-02T00:09:40;3.00;99.90
36416;DHT22;22447;44.530;18.620;2023-03-02T00:12:08;2.90;99.90
36416;DHT22;22447;44.530;18.620;2023-03-02T00:14:34;3.00;99.90
36416;DHT22;22447;44.530;18.620;2023-03-02T00:17:00;3.10;99.90
36416;DHT22;22447;44.530;18.620;2023-03-02T00:19:27;3.10;99.90
36416;DHT22;22447;44.530;18.620;2023-03-02T00:21:53;3.10;99.90
36416;DHT22;22447;44.530;18.620;2023-03-02T00:24:19;3.10;99.90
36416;DHT22;22447;44.530;18.620;2023-03-02T00:26:45;3.00;99.90
36416;DHT22;22447;44.530;18.620;2023-03-02T00:29:11;3.00;99.90
36416;DHT22;22447;44.530;18.620;2023-03-02T00:31:37;3.10;99.90
36416;DHT22;22447;44.530;18.620;2023-03-02T00:34:03;3.10;99.90
36416;DHT22;22447;44.530;18.620;2023-03-02T00:36:29;3.00;99.90
36416;DHT22;22447;44.530;18.620;2023-03-02T00:38:55;3.00;99.90
36416;DHT22;22447;44.530;18.620;2023-03-02T00:41:22;3.00;99.90
36416;DHT22;22447;44.530;18.620;2023-03-02T00:43:49;3.00;99.90
36416;DHT22;22447;44.530;18.620;2023-03-02T00:46:17;3.10;99.90
36416;DHT22;22447;44.530;18.620;2023-03-02T00:48:44;3.10;99.90
36416;DHT22;22447;44.530;18.620;2023-03-02T00:51:11;3.10;99.90
36416;DHT22;22447;44.530;18.620;2023-03-02T00:53:37;3.00;99.90
36416;DHT22;22447;44.530;18.620;2023-03-02T00:56:04;3.10;99.90
36416;DHT22;22447;44.530;18.620;2023-03-02T00:58:33;3.00;99.90
36416;DHT22;22447;44.530;18.620;2023-03-02T01:01:06;3.10;99.90
36416;DHT22;22447;44.530;18.620;2023-03-02T01:03:35;3.10;99.90
36416;DHT22;22447;44.530;18.620;2023-03-02T01:06:02;3.10;99.90
36416;DHT22;22447;44.530;18.620;2023-03-02T01:08:29;3.10;99.90
36416;DHT22;22447;44.530;18.620;2023-03-02T01:10:56;3.10;99.90
36416;DHT22;22447;44.530;18.620;2023-03-02T01:13:26;3.00;99.90
36416;DHT22;22447;44.530;18.620;2023-03-02T01:16:02;3.00;99.90
36416;DHT22;22447;44.530;18.620;2023-03-02T01:18:28;3.10;99.90
36416;DHT22;22447;44.530;18.620;2023-03-02T01:21:21;3.00;99.90
36416;DHT22;22447;44.530;18.620;2023-03-02T01:23:46;2.90;99.90
36416;DHT22;22447;44.530;18.620;2023-03-02T01:26:13;2.90;99.90
36416;DHT22;22447;44.530;18.620;2023-03-02T01:28:38;3.00;99.90
36416;DHT22;22447;44.530;18.620;2023-03-02T01:31:05;3.10;99.90
36416;DHT22;22447;44.530;18.620;2023-03-02T01:33:31;3.10;99.90
36416;DHT22;22447;44.530;18.620;2023-03-02T01:35:57;3.20;99.90
36416;DHT22;22447;44.530;18.620;2023-03-02T01:38:23;3.10;99.90
36416;DHT22;22447;44.530;18.620;2023-03-02T01:40:49;3.20;99.90
36416;DHT22;22447;44.530;18.620;2023-03-02T01:43:15;3.20;99.90
36416;DHT22;22447;44.530;18.620;2023-03-02T01:45:51;3.30;99.90
36416;DHT22;22447;44.530;18.620;2023-03-02T01:48:49;3.30;99.90
36416;DHT22;22447;44.530;18.620;2023-03-02T01:51:25;3.30;99.90
36416;DHT22;22447;44.530;18.620;2023-03-02T01:53:57;3.10;99.90
36416;DHT22;22447;44.530;18.620;2023-03-02T01:56:34;3.10;99.90
36416;DHT22;22447;44.530;18.620;2023-03-02T01:59:06;3.00;99.90
36416;DHT22;22447;44.530;18.620;2023-03-02T02:01:35;3.00;99.90
36416;DHT22;22447;44.530;18.620;2023-03-02T02:04:02;3.00;99.90
36416;DHT22;22447;44.530;18.620;2023-03-02T02:06:38;3.10;99.90
36416;DHT22;22447;44.530;18.620;2023-03-02T02:09:08;3.00;99.90
36416;DHT22;22447;44.530;18.620;2023-03-02T02:11:35;3.10;99.90
36416;DHT22;22447;44.530;18.620;2023-03-02T02:14:02;3.00;99.90
36416;DHT22;22447;44.530;18.620;2023-03-02T02:16:31;2.90;99.90
36416;DHT22;22447;44.530;18.620;2023-03-02T02:18:58;3.00;99.90
36416;DHT22;22447;44.530;18.620;2023-03-02T02:21:24;3.00;99.90
36416;DHT22;22447;44.530;18.620;2023-03-02T02:26:24;2.90;99.90
36416;DHT22;22447;44.530;18.620;2023-03-02T02:29:01;2.90;99.90
36416;DHT22;22447;44.530;18.620;2023-03-02T02:32:37;2.80;99.90
36416;DHT22;22447;44.530;18.620;2023-03-02T02:37:11;2.90;99.90
36416;DHT22;22447;44.530;18.620;2023-03-02T02:39:42;3.00;99.90
36416;DHT22;22447;44.530;18.620;2023-03-02T02:42:14;2.90;99.90
36416;DHT22;22447;44.530;18.620;2023-03-02T02:44:42;3.00;99.90
36416;DHT22;22447;44.530;18.620;2023-03-02T02:47:19;3.00;99.90
36416;DHT22;22447;44.530;18.620;2023-03-02T02:49:48;2.90;99.90
36416;DHT22;22447;44.530;18.620;2023-03-02T02:52:18;3.00;99.90
36416;DHT22;22447;44.530;18.620;2023-03-02T02:54:49;3.10;99.90
36416;DHT22;22447;44.530;18.620;2023-03-02T02:57:16;3.00;99.90
36416;DHT22;22447;44.530;18.620;2023-03-02T02:59:55;3.00;99.90
36416;DHT22;22447;44.530;18.620;2023-03-02T03:02:26;3.00;99.90
36416;DHT22;22447;44.530;18.620;2023-03-02T03:04:52;3.00;99.90
36416;DHT22;22447;44.530;18.620;2023-03-02T03:07:30;3.00;99.90
36416;DHT22;22447;44.530;18.620;2023-03-02T03:12:34;3.00;99.90
36416;DHT22;22447;44.530;18.620;2023-03-02T03:15:02;3.00;99.90
36416;DHT22;22447;44.530;18.620;2023-03-02T03:17:28;3.00;99.90
36416;DHT22;22447;44.530;18.620;2023-03-02T03:19:59;3.00;99.90
36416;DHT22;22447;44.530;18.620;2023-03-02T03:22:34;3.00;99.90
36416;DHT22;22447;44.530;18.620;2023-03-02T03:25:01;3.00;99.90
36416;DHT22;22447;44.530;18.620;2023-03-02T03:27:27;2.90;99.90
36416;DHT22;22447;44.530;18.620;2023-03-02T03:29:54;2.90;99.90
36416;DHT22;22447;44.530;18.620;2023-03-02T03:32:21;2.90;99.90
36416;DHT22;22447;44.530;18.620;2023-03-02T03:34:50;3.00;99.90
36416;DHT22;22447;44.530;18.620;2023-03-02T03:37:22;3.00;99.90
36416;DHT22;22447;44.530;18.620;2023-03-02T03:39:49;3.00;99.90
36416;DHT22;22447;44.530;18.620;2023-03-02T03:42:16;3.00;99.90
36416;DHT22;22447;44.530;18.620;2023-03-02T03:44:43;3.00;99.90
36416;DHT22;22447;44.530;18.620;2023-03-02T03:47:09;3.00;99.90
36416;DHT22;22447;44.530;18.620;2023-03-02T03:49:35;2.90;99.90
36416;DHT22;22447;44.530;18.620;2023-03-02T03:52:02;2.70;99.90
36416;DHT22;22447;44.530;18.620;2023-03-02T03:54:29;2.70;99.90
36416;DHT22;22447;44.530;18.620;2023-03-02T03:56:55;2.90;99.90
36416;DHT22;22447;44.530;18.620;2023-03-02T03:59:23;3.00;99.90
36416;DHT22;22447;44.530;18.620;2023-03-02T04:01:56;3.00;99.90
36416;DHT22;22447;44.530;18.620;2023-03-02T04:04:31;3.10;99.90
36416;DHT22;22447;44.530;18.620;2023-03-02T04:06:58;3.20;99.90
36416;DHT22;22447;44.530;18.620;2023-03-02T04:09:25;3.20;99.90
36416;DHT22;22447;44.530;18.620;2023-03-02T04:11:54;3.10;99.90
36416;DHT22;22447;44.530;18.620;2023-03-02T04:14:22;3.10;99.90
36416;DHT22;22447;44.530;18.620;2023-03-02T04:16:49;3.10;99.90
36416;DHT22;22447;44.530;18.620;2023-03-02T04:19:15;3.00;99.90
36416;DHT22;22447;44.530;18.620;2023-03-02T04:21:47;3.10;99.90
36416;DHT22;22447;44.530;18.620;2023-03-02T04:24:16;2.90;99.90
36416;DHT22;22447;44.530;18.620;2023-03-02T04:26:44;2.90;99.90
36416;DHT22;22447;44.530;18.620;2023-03-02T04:29:11;3.00;99.90
36416;DHT22;22447;44.530;18.620;2023-03-02T04:31:38;3.00;99.90
36416;DHT22;22447;44.530;18.620;2023-03-02T04:34:05;3.00;99.90
36416;DHT22;22447;44.530;18.620;2023-03-02T04:36:35;2.90;99.90
36416;DHT22;22447;44.530;18.620;2023-03-02T04:39:04;2.90;99.90
36416;DHT22;22447;44.530;18.620;2023-03-02T04:41:31;2.90;99.90
36416;DHT22;22447;44.530;18.620;2023-03-02T04:43:57;3.00;99.90
36416;DHT22;22447;44.530;18.620;2023-03-02T04:46:25;2.90;99.90
36416;DHT22;22447;44.530;18.620;2023-03-02T04:48:52;3.00;99.90
36416;DHT22;22447;44.530;18.620;2023-03-02T04:51:34;3.10;99.90
36416;DHT22;22447;44.530;18.620;2023-03-02T04:54:03;3.00;99.90
36416;DHT22;22447;44.530;18.620;2023-03-02T04:56:29;3.10;99.90
36416;DHT22;22447;44.530;18.620;2023-03-02T04:58:55;3.10;99.90
36416;DHT22;22447;44.530;18.620;2023-03-02T05:01:22;3.20;99.90
36416;DHT22;22447;44.530;18.620;2023-03-02T05:03:49;3.10;99.90
36416;DHT22;22447;44.530;18.620;2023-03-02T05:06:15;3.20;99.90
36416;DHT22;22447;44.530;18.620;2023-03-02T05:08:42;3.30;99.90
36416;DHT22;22447;44.530;18.620;2023-03-02T05:11:13;3.20;99.90
36416;DHT22;22447;44.530;18.620;2023-03-02T05:13:51;3.20;99.90
36416;DHT22;22447;44.530;18.620;2023-03-02T05:16:18;3.10;99.90
36416;DHT22;22447;44.530;18.620;2023-03-02T05:18:44;3.20;99.90
36416;DHT22;22447;44.530;18.620;2023-03-02T05:21:10;3.20;99.90
36416;DHT22;22447;44.530;18.620;2023-03-02T05:23:36;3.20;99.90
36416;DHT22;22447;44.530;18.620;2023-03-02T05:26:02;3.20;99.90
36416;DHT22;22447;44.530;18.620;2023-03-02T05:28:28;3.30;99.90
36416;DHT22;22447;44.530;18.620;2023-03-02T05:30:54;3.20;99.90
36416;DHT22;22447;44.530;18.620;2023-03-02T05:33:20;3.10;99.90
36416;DHT22;22447;44.530;18.620;2023-03-02T05:35:46;3.20;99.90
36416;DHT22;22447;44.530;18.620;2023-03-02T05:38:13;3.20;99.90
36416;DHT22;22447;44.530;18.620;2023-03-02T05:40:39;3.20;99.90
36416;DHT22;22447;44.530;18.620;2023-03-02T05:43:07;3.30;99.90
36416;DHT22;22447;44.530;18.620;2023-03-02T05:45:35;3.40;99.90
36416;DHT22;22447;44.530;18.620;2023-03-02T05:48:02;3.20;99.90
36416;DHT22;22447;44.530;18.620;2023-03-02T05:50:29;3.10;99.90
36416;DHT22;22447;44.530;18.620;2023-03-02T05:52:55;3.10;99.90
36416;DHT22;22447;44.530;18.620;2023-03-02T05:55:21;3.20;99.90
36416;DHT22;22447;44.530;18.620;2023-03-02T05:57:47;3.20;99.90
36416;DHT22;22447;44.530;18.620;2023-03-02T06:00:16;3.20;99.90
36416;DHT22;22447;44.530;18.620;2023-03-02T06:02:43;3.20;99.90
36416;DHT22;22447;44.530;18.620;2023-03-02T06:05:11;3.20;99.90
36416;DHT22;22447;44.530;18.620;2023-03-02T06:07:38;3.00;99.90
36416;DHT22;22447;44.530;18.620;2023-03-02T06:10:05;3.00;99.90
36416;DHT22;22447;44.530;18.620;2023-03-02T06:12:32;3.10;99.90
36416;DHT22;22447;44.530;18.620;2023-03-02T06:14:58;3.10;99.90
36416;DHT22;22447;44.530;18.620;2023-03-02T06:17:25;3.10;99.90
36416;DHT22;22447;44.530;18.620;2023-03-02T06:19:51;3.10;99.90
36416;DHT22;22447;44.530;18.620;2023-03-02T06:22:17;3.20;99.90
36416;DHT22;22447;44.530;18.620;2023-03-02T06:24:43;3.20;99.90
36416;DHT22;22447;44.530;18.620;2023-03-02T06:27:10;3.20;99.90
36416;DHT22;22447;44.530;18.620;2023-03-02T06:29:36;3.30;99.90
36416;DHT22;22447;44.530;18.620;2023-03-02T06:32:02;3.30;99.90
36416;DHT22;22447;44.530;18.620;2023-03-02T06:34:28;3.40;99.90
36416;DHT22;22447;44.530;18.620;2023-03-02T06:36:54;3.50;99.90
36416;DHT22;22447;44.530;18.620;2023-03-02T06:39:21;3.50;99.90
36416;DHT22;22447;44.530;18.620;2023-03-02T06:41:48;3.50;99.90
36416;DHT22;22447;44.530;18.620;2023-03-02T06:44:16;3.50;99.90
36416;DHT22;22447;44.530;18.620;2023-03-02T06:46:43;3.60;99.90
36416;DHT22;22447;44.530;18.620;2023-03-02T06:49:10;3.50;99.90
36416;DHT22;22447;44.530;18.620;2023-03-02T06:51:37;3.40;99.90
36416;DHT22;22447;44.530;18.620;2023-03-02T06:54:04;3.30;99.90
36416;DHT22;22447;44.530;18.620;2023-03-02T06:56:32;3.20;99.90
36416;DHT22;22447;44.530;18.620;2023-03-02T06:58:58;3.20;99.90
36416;DHT22;22447;44.530;18.620;2023-03-02T07:01:24;3.20;99.90
36416;DHT22;22447;44.530;18.620;2023-03-02T07:03:50;3.10;99.90
36416;DHT22;22447;44.530;18.620;2023-03-02T07:06:16;3.20;99.90
36416;DHT22;22447;44.530;18.620;2023-03-02T07:08:44;3.30;99.90
36416;DHT22;22447;44.530;18.620;2023-03-02T07:11:11;3.40;99.90
36416;DHT22;22447;44.530;18.620;2023-03-02T07:13:38;3.40;99.90
36416;DHT22;22447;44.530;18.620;2023-03-02T07:16:07;3.50;99.90
36416;DHT22;22447;44.530;18.620;2023-03-02T07:18:33;3.50;99.90
36416;DHT22;22447;44.530;18.620;2023-03-02T07:20:59;3.50;99.90
36416;DHT22;22447;44.530;18.620;2023-03-02T07:23:25;3.70;99.90
36416;DHT22;22447;44.530;18.620;2023-03-02T07:25:51;3.60;99.90
36416;DHT22;22447;44.530;18.620;2023-03-02T07:28:17;3.60;99.90
36416;DHT22;22447;44.530;18.620;2023-03-02T07:30:44;3.60;99.90
36416;DHT22;22447;44.530;18.620;2023-03-02T07:33:10;3.70;99.90
36416;DHT22;22447;44.530;18.620;2023-03-02T07:35:39;3.60;99.90
36416;DHT22;22447;44.530;18.620;2023-03-02T07:38:05;3.80;99.90
36416;DHT22;22447;44.530;18.620;2023-03-02T07:40:31;3.90;99.90
36416;DHT22;22447;44.530;18.620;2023-03-02T07:42:58;3.90;99.90
36416;DHT22;22447;44.530;18.620;2023-03-02T07:45:24;4.00;99.90
36416;DHT22;22447;44.530;18.620;2023-03-02T07:47:51;4.00;99.90
36416;DHT22;22447;44.530;18.620;2023-03-02T07:50:17;4.10;99.90
36416;DHT22;22447;44.530;18.620;2023-03-02T07:52:43;4.20;99.90
36416;DHT22;22447;44.530;18.620;2023-03-02T07:55:09;4.30;99.90
36416;DHT22;22447;44.530;18.620;2023-03-02T07:57:35;4.20;99.90
36416;DHT22;22447;44.530;18.620;2023-03-02T08:00:03;4.30;99.90
36416;DHT22;22447;44.530;18.620;2023-03-02T08:02:38;4.30;99.90
36416;DHT22;22447;44.530;18.620;2023-03-02T08:05:05;4.30;99.90
36416;DHT22;22447;44.530;18.620;2023-03-02T08:07:31;4.30;99.90
36416;DHT22;22447;44.530;18.620;2023-03-02T08:09:58;4.20;99.90
36416;DHT22;22447;44.530;18.620;2023-03-02T08:12:26;4.40;99.90
36416;DHT22;22447;44.530;18.620;2023-03-02T08:14:52;4.60;99.90
36416;DHT22;22447;44.530;18.620;2023-03-02T08:17:19;4.80;99.90
36416;DHT22;22447;44.530;18.620;2023-03-02T08:19:45;4.60;99.90
36416;DHT22;22447;44.530;18.620;2023-03-02T08:22:11;4.60;99.90
36416;DHT22;22447;44.530;18.620;2023-03-02T08:24:37;4.40;99.90
36416;DHT22;22447;44.530;18.620;2023-03-02T08:27:06;4.60;99.90
36416;DHT22;22447;44.530;18.620;2023-03-02T08:29:32;4.80;99.90
36416;DHT22;22447;44.530;18.620;2023-03-02T08:31:59;4.90;99.90
36416;DHT22;22447;44.530;18.620;2023-03-02T08:34:25;5.00;99.90
36416;DHT22;22447;44.530;18.620;2023-03-02T08:36:52;5.10;99.90
36416;DHT22;22447;44.530;18.620;2023-03-02T08:39:19;5.00;99.90
36416;DHT22;22447;44.530;18.620;2023-03-02T08:41:52;5.00;99.90
36416;DHT22;22447;44.530;18.620;2023-03-02T08:44:18;5.10;99.90
36416;DHT22;22447;44.530;18.620;2023-03-02T08:46:48;5.10;99.90
36416;DHT22;22447;44.530;18.620;2023-03-02T08:49:15;5.20;99.90
36416;DHT22;22447;44.530;18.620;2023-03-02T08:51:44;5.20;99.90
36416;DHT22;22447;44.530;18.620;2023-03-02T08:54:11;5.40;99.90
36416;DHT22;22447;44.530;18.620;2023-03-02T08:56:38;5.40;99.90
36416;DHT22;22447;44.530;18.620;2023-03-02T08:59:07;5.40;99.90
36416;DHT22;22447;44.530;18.620;2023-03-02T09:01:36;5.30;99.90
36416;DHT22;22447;44.530;18.620;2023-03-02T09:04:03;5.20;99.90
36416;DHT22;22447;44.530;18.620;2023-03-02T09:06:33;5.10;99.90
36416;DHT22;22447;44.530;18.620;2023-03-02T09:08:59;5.10;99.90
36416;DHT22;22447;44.530;18.620;2023-03-02T09:11:27;5.40;99.90
36416;DHT22;22447;44.530;18.620;2023-03-02T09:13:53;5.60;99.90
36416;DHT22;22447;44.530;18.620;2023-03-02T09:16:21;5.80;99.90
36416;DHT22;22447;44.530;18.620;2023-03-02T09:18:49;5.70;99.90
36416;DHT22;22447;44.530;18.620;2023-03-02T09:21:17;5.70;99.90
36416;DHT22;22447;44.530;18.620;2023-03-02T09:23:43;5.90;99.90
36416;DHT22;22447;44.530;18.620;2023-03-02T09:26:10;5.90;99.90
36416;DHT22;22447;44.530;18.620;2023-03-02T09:28:37;5.70;99.90
36416;DHT22;22447;44.530;18.620;2023-03-02T09:31:06;5.80;99.90
36416;DHT22;22447;44.530;18.620;2023-03-02T09:33:34;5.60;99.90
36416;DHT22;22447;44.530;18.620;2023-03-02T09:36:07;5.60;99.90
36416;DHT22;22447;44.530;18.620;2023-03-02T09:38:34;5.70;99.90
36416;DHT22;22447;44.530;18.620;2023-03-02T09:46:22;5.50;99.90
36416;DHT22;22447;44.530;18.620;2023-03-02T09:48:55;5.50;99.90
36416;DHT22;22447;44.530;18.620;2023-03-02T09:54:11;5.60;99.90
36416;DHT22;22447;44.530;18.620;2023-03-02T09:56:46;5.70;99.90
36416;DHT22;22447;44.530;18.620;2023-03-02T10:02:43;6.20;99.90
36416;DHT22;22447;44.530;18.620;2023-03-02T10:05:10;6.20;99.90
36416;DHT22;22447;44.530;18.620;2023-03-02T10:07:38;6.30;99.90
36416;DHT22;22447;44.530;18.620;2023-03-02T10:12:57;6.30;99.90
36416;DHT22;22447;44.530;18.620;2023-03-02T10:15:38;6.20;99.90
36416;DHT22;22447;44.530;18.620;2023-03-02T10:18:48;6.30;99.90
36416;DHT22;22447;44.530;18.620;2023-03-02T10:21:28;6.40;99.90
36416;DHT22;22447;44.530;18.620;2023-03-02T10:26:40;6.40;99.90
36416;DHT22;22447;44.530;18.620;2023-03-02T10:31:39;6.50;99.90
36416;DHT22;22447;44.530;18.620;2023-03-02T10:34:09;6.50;99.90
36416;DHT22;22447;44.530;18.620;2023-03-02T10:36:40;6.50;99.90
36416;DHT22;22447;44.530;18.620;2023-03-02T10:39:15;6.50;99.90
36416;DHT22;22447;44.530;18.620;2023-03-02T10:41:57;6.70;99.90
36416;DHT22;22447;44.530;18.620;2023-03-02T10:44:28;6.80;99.90
36416;DHT22;22447;44.530;18.620;2023-03-02T10:46:55;7.00;99.90
36416;DHT22;22447;44.530;18.620;2023-03-02T10:49:32;7.30;99.90
36416;DHT22;22447;44.530;18.620;2023-03-02T10:54:31;7.70;99.90
36416;DHT22;22447;44.530;18.620;2023-03-02T10:57:00;7.90;99.90
36416;DHT22;22447;44.530;18.620;2023-03-02T10:59:38;7.90;99.90
36416;DHT22;22447;44.530;18.620;2023-03-02T11:02:21;7.90;99.90
36416;DHT22;22447;44.530;18.620;2023-03-02T11:04:58;7.60;99.90
36416;DHT22;22447;44.530;18.620;2023-03-02T11:07:35;8.00;99.90
36416;DHT22;22447;44.530;18.620;2023-03-02T11:10:16;7.60;99.90
36416;DHT22;22447;44.530;18.620;2023-03-02T11:12:44;8.00;99.90
36416;DHT22;22447;44.530;18.620;2023-03-02T11:15:24;8.20;99.90
36416;DHT22;22447;44.530;18.620;2023-03-02T11:18:14;8.10;99.90
36416;DHT22;22447;44.530;18.620;2023-03-02T11:20:47;8.10;99.90
36416;DHT22;22447;44.530;18.620;2023-03-02T11:31:20;8.10;99.90
36416;DHT22;22447;44.530;18.620;2023-03-02T11:36:56;8.00;99.90
36416;DHT22;22447;44.530;18.620;2023-03-02T11:42:32;8.00;99.90
36416;DHT22;22447;44.530;18.620;2023-03-02T11:45:17;7.80;99.90
36416;DHT22;22447;44.530;18.620;2023-03-02T11:47:49;7.90;99.90
36416;DHT22;22447;44.530;18.620;2023-03-02T11:50:16;7.80;99.90
36416;DHT22;22447;44.530;18.620;2023-03-02T11:52:51;7.90;99.90
36416;DHT22;22447;44.530;18.620;2023-03-02T11:55:24;8.00;99.90
36416;DHT22;22447;44.530;18.620;2023-03-02T11:57:55;8.10;99.90
36416;DHT22;22447;44.530;18.620;2023-03-02T12:03:03;8.30;99.90
36416;DHT22;22447;44.530;18.620;2023-03-02T12:05:32;8.30;99.90
36416;DHT22;22447;44.530;18.620;2023-03-02T12:08:30;8.40;99.90
36416;DHT22;22447;44.530;18.620;2023-03-02T12:14:02;8.50;99.90
36416;DHT22;22447;44.530;18.620;2023-03-02T12:16:38;8.50;99.90
36416;DHT22;22447;44.530;18.620;2023-03-02T12:21:58;8.30;99.90
36416;DHT22;22447;44.530;18.620;2023-03-02T12:24:30;8.40;99.90
36416;DHT22;22447;44.530;18.620;2023-03-02T12:27:04;8.40;99.90
36416;DHT22;22447;44.530;18.620;2023-03-02T12:29:44;8.30;99.90
36416;DHT22;22447;44.530;18.620;2023-03-02T12:35:02;8.10;99.90
36416;DHT22;22447;44.530;18.620;2023-03-02T12:40:38;7.90;99.90
36416;DHT22;22447;44.530;18.620;2023-03-02T12:48:45;7.70;99.90
36416;DHT22;22447;44.530;18.620;2023-03-02T12:51:25;7.80;99.90
36416;DHT22;22447;44.530;18.620;2023-03-02T12:54:15;7.40;99.90
36416;DHT22;22447;44.530;18.620;2023-03-02T12:56:42;7.50;99.90
36416;DHT22;22447;44.530;18.620;2023-03-02T12:59:40;7.50;99.90
36416;DHT22;22447;44.530;18.620;2023-03-02T13:02:19;7.50;99.90
36416;DHT22;22447;44.530;18.620;2023-03-02T13:04:56;7.50;99.90
36416;DHT22;22447;44.530;18.620;2023-03-02T13:07:29;7.60;99.90
36416;DHT22;22447;44.530;18.620;2023-03-02T13:09:59;7.60;99.90
36416;DHT22;22447;44.530;18.620;2023-03-02T13:12:26;7.60;99.90
36416;DHT22;22447;44.530;18.620;2023-03-02T13:14:56;7.40;99.90
36416;DHT22;22447;44.530;18.620;2023-03-02T13:17:26;7.30;99.90
36416;DHT22;22447;44.530;18.620;2023-03-02T13:19:54;7.50;99.90
36416;DHT22;22447;44.530;18.620;2023-03-02T13:22:20;7.50;99.90
36416;DHT22;22447;44.530;18.620;2023-03-02T13:27:25;7.50;99.90
36416;DHT22;22447;44.530;18.620;2023-03-02T13:29:52;7.40;99.90
36416;DHT22;22447;44.530;18.620;2023-03-02T13:32:38;7.40;99.90
36416;DHT22;22447;44.530;18.620;2023-03-02T13:35:15;7.40;99.90
36416;DHT22;22447;44.530;18.620;2023-03-02T13:37:42;7.40;99.90
36416;DHT22;22447;44.530;18.620;2023-03-02T13:42:47;7.50;99.90
36416;DHT22;22447;44.530;18.620;2023-03-02T13:45:30;7.50;99.90
36416;DHT22;22447;44.530;18.620;2023-03-02T13:47:58;7.50;99.90
36416;DHT22;22447;44.530;18.620;2023-03-02T13:50:27;7.50;99.90
36416;DHT22;22447;44.530;18.620;2023-03-02T13:52:58;7.60;99.90
36416;DHT22;22447;44.530;18.620;2023-03-02T13:55:27;7.60;99.90
36416;DHT22;22447;44.530;18.620;2023-03-02T13:57:54;7.50;99.90
36416;DHT22;22447;44.530;18.620;2023-03-02T14:00:28;7.50;99.90
36416;DHT22;22447;44.530;18.620;2023-03-02T14:02:55;7.50;99.90
36416;DHT22;22447;44.530;18.620;2023-03-02T14:05:23;7.60;99.90
36416;DHT22;22447;44.530;18.620;2023-03-02T14:08:00;7.60;99.90
36416;DHT22;22447;44.530;18.620;2023-03-02T14:10:28;7.40;99.90
36416;DHT22;22447;44.530;18.620;2023-03-02T14:13:01;7.40;99.90
36416;DHT22;22447;44.530;18.620;2023-03-02T14:15:29;7.40;99.90
36416;DHT22;22447;44.530;18.620;2023-03-02T14:17:55;7.50;99.90
36416;DHT22;22447;44.530;18.620;2023-03-02T14:20:21;7.30;99.90
36416;DHT22;22447;44.530;18.620;2023-03-02T14:22:48;7.40;99.90
36416;DHT22;22447;44.530;18.620;2023-03-02T14:25:15;7.30;99.90
36416;DHT22;22447;44.530;18.620;2023-03-02T14:27:42;7.10;99.90
36416;DHT22;22447;44.530;18.620;2023-03-02T14:30:17;7.10;99.90
36416;DHT22;22447;44.530;18.620;2023-03-02T14:32:44;7.20;99.90
36416;DHT22;22447;44.530;18.620;2023-03-02T14:35:12;7.20;99.90
36416;DHT22;22447;44.530;18.620;2023-03-02T14:37:42;7.20;99.90
36416;DHT22;22447;44.530;18.620;2023-03-02T14:40:25;7.10;99.90
36416;DHT22;22447;44.530;18.620;2023-03-02T14:42:52;7.10;99.90
36416;DHT22;22447;44.530;18.620;2023-03-02T14:45:19;7.10;99.90
36416;DHT22;22447;44.530;18.620;2023-03-02T14:47:45;7.20;99.90
36416;DHT22;22447;44.530;18.620;2023-03-02T14:50:12;7.10;99.90
36416;DHT22;22447;44.530;18.620;2023-03-02T14:52:42;7.10;99.90
36416;DHT22;22447;44.530;18.620;2023-03-02T14:55:17;7.10;99.90
36416;DHT22;22447;44.530;18.620;2023-03-02T14:57:46;7.10;99.90
36416;DHT22;22447;44.530;18.620;2023-03-02T15:00:13;7.10;99.90
36416;DHT22;22447;44.530;18.620;2023-03-02T15:02:40;7.10;99.90
36416;DHT22;22447;44.530;18.620;2023-03-02T15:05:06;7.20;99.90
36416;DHT22;22447;44.530;18.620;2023-03-02T15:07:32;7.20;99.90
36416;DHT22;22447;44.530;18.620;2023-03-02T15:09:58;7.20;99.90
36416;DHT22;22447;44.530;18.620;2023-03-02T15:12:25;7.20;99.90
36416;DHT22;22447;44.530;18.620;2023-03-02T15:14:50;7.20;99.90
36416;DHT22;22447;44.530;18.620;2023-03-02T15:17:16;7.20;99.90
36416;DHT22;22447;44.530;18.620;2023-03-02T15:19:42;7.10;99.90
36416;DHT22;22447;44.530;18.620;2023-03-02T15:22:09;7.10;99.90
36416;DHT22;22447;44.530;18.620;2023-03-02T15:24:35;7.10;99.90
36416;DHT22;22447;44.530;18.620;2023-03-02T15:27:01;6.90;99.90
36416;DHT22;22447;44.530;18.620;2023-03-02T15:29:27;6.80;99.90
36416;DHT22;22447;44.530;18.620;2023-03-02T15:31:53;6.80;99.90
36416;DHT22;22447;44.530;18.620;2023-03-02T15:34:18;6.80;99.90
36416;DHT22;22447;44.530;18.620;2023-03-02T15:36:44;6.70;99.90
36416;DHT22;22447;44.530;18.620;2023-03-02T15:39:14;6.60;99.90
36416;DHT22;22447;44.530;18.620;2023-03-02T15:41:41;6.60;99.90
36416;DHT22;22447;44.530;18.620;2023-03-02T15:44:15;6.70;99.90
36416;DHT22;22447;44.530;18.620;2023-03-02T15:46:49;6.60;99.90
36416;DHT22;22447;44.530;18.620;2023-03-02T15:49:17;6.60;99.90
36416;DHT22;22447;44.530;18.620;2023-03-02T15:51:48;6.60;99.90
36416;DHT22;22447;44.530;18.620;2023-03-02T15:54:16;6.50;99.90
36416;DHT22;22447;44.530;18.620;2023-03-02T15:56:42;6.50;99.90
36416;DHT22;22447;44.530;18.620;2023-03-02T15:59:10;6.50;99.90
36416;DHT22;22447;44.530;18.620;2023-03-02T16:01:36;6.60;99.90
36416;DHT22;22447;44.530;18.620;2023-03-02T16:04:02;6.60;99.90
36416;DHT22;22447;44.530;18.620;2023-03-02T16:06:29;6.60;99.90
36416;DHT22;22447;44.530;18.620;2023-03-02T16:08:55;6.50;99.90
36416;DHT22;22447;44.530;18.620;2023-03-02T16:11:21;6.50;99.90
36416;DHT22;22447;44.530;18.620;2023-03-02T16:13:50;6.40;99.90
36416;DHT22;22447;44.530;18.620;2023-03-02T16:16:17;6.30;99.90
36416;DHT22;22447;44.530;18.620;2023-03-02T16:18:49;6.20;99.90
36416;DHT22;22447;44.530;18.620;2023-03-02T16:21:15;6.20;99.90
36416;DHT22;22447;44.530;18.620;2023-03-02T16:23:41;6.20;99.90
36416;DHT22;22447;44.530;18.620;2023-03-02T16:26:09;6.20;99.90
36416;DHT22;22447;44.530;18.620;2023-03-02T16:28:36;6.30;99.90
36416;DHT22;22447;44.530;18.620;2023-03-02T16:31:07;6.30;99.90
36416;DHT22;22447;44.530;18.620;2023-03-02T16:33:34;6.30;99.90
36416;DHT22;22447;44.530;18.620;2023-03-02T16:36:00;6.40;99.90
36416;DHT22;22447;44.530;18.620;2023-03-02T16:38:26;6.40;99.90
36416;DHT22;22447;44.530;18.620;2023-03-02T16:40:52;6.30;99.90
36416;DHT22;22447;44.530;18.620;2023-03-02T16:43:19;6.20;99.90
36416;DHT22;22447;44.530;18.620;2023-03-02T16:45:45;6.20;99.90
36416;DHT22;22447;44.530;18.620;2023-03-02T16:48:12;6.10;99.90
36416;DHT22;22447;44.530;18.620;2023-03-02T16:50:38;6.00;99.90
36416;DHT22;22447;44.530;18.620;2023-03-02T16:53:04;6.00;99.90